createdAt,value
2023-05-21T00:00:22.887Z,7.70
2023-05-21T00:02:54.024Z,7.70
2023-05-21T00:05:25.109Z,8.70
2023-05-21T00:07:55.842Z,8.40
2023-05-21T00:10:27.720Z,9.10
2023-05-21T00:12:58.262Z,9.00
2023-05-21T00:15:28.859Z,8.60
2023-05-21T00:17:59.996Z,9.80
2023-05-21T00:20:32.306Z,8.00
2023-05-21T00:23:04.129Z,8.60
2023-05-21T00:25:35.002Z,8.60
2023-05-21T00:28:06.001Z,7.70
2023-05-21T00:30:37.485Z,11.80
2023-05-21T00:33:10.564Z,8.10
2023-05-21T00:35:41.519Z,8.70
2023-05-21T00:38:12.094Z,8.80
2023-05-21T00:40:42.694Z,8.50
2023-05-21T00:43:14.436Z,9.50
2023-05-21T00:45:46.818Z,9.90
2023-05-21T00:48:18.087Z,7.50
2023-05-21T00:50:49.573Z,10.60
2023-05-21T00:53:20.960Z,11.20
2023-05-21T00:55:52.648Z,7.10
2023-05-21T00:58:24.030Z,9.30
2023-05-21T01:00:56.984Z,7.60
2023-05-21T01:03:27.826Z,8.10
2023-05-21T01:06:00.153Z,8.40
2023-05-21T01:08:31.139Z,8.20
2023-05-21T01:11:03.109Z,9.30
2023-05-21T01:13:34.970Z,9.50
2023-05-21T01:16:07.047Z,8.40
2023-05-21T01:18:38.609Z,7.30
2023-05-21T01:21:09.777Z,9.80
2023-05-21T01:23:40.602Z,7.60
2023-05-21T01:26:12.957Z,7.40
2023-05-21T01:28:43.958Z,7.70
2023-05-21T01:31:23.645Z,7.20
2023-05-21T01:33:57.332Z,9.10
2023-05-21T01:36:36.028Z,7.90
2023-05-21T01:39:13.103Z,8.40
2023-05-21T01:41:47.789Z,7.80
2023-05-21T01:44:20.041Z,7.80
2023-05-21T01:46:51.790Z,7.00
2023-05-21T01:49:23.591Z,9.20
2023-05-21T01:51:57.722Z,7.80
2023-05-21T01:54:28.642Z,7.20
2023-05-21T01:57:00.001Z,8.60
2023-05-21T01:59:31.160Z,9.40
2023-05-21T02:02:01.789Z,7.60
2023-05-21T02:04:33.168Z,7.80
2023-05-21T02:07:03.720Z,7.00
2023-05-21T02:09:34.384Z,7.90
2023-05-21T02:12:08.107Z,7.50
2023-05-21T02:14:39.210Z,9.30
2023-05-21T02:17:10.360Z,7.80
2023-05-21T02:19:41.922Z,7.10
2023-05-21T02:22:13.900Z,7.70
2023-05-21T02:24:45.482Z,8.50
2023-05-21T02:27:17.805Z,8.60
2023-05-21T02:29:48.383Z,10.60
2023-05-21T02:32:19.930Z,8.00
2023-05-21T02:34:51.100Z,7.50
2023-05-21T02:37:22.824Z,9.90
2023-05-21T02:39:53.491Z,8.60
2023-05-21T02:42:24.705Z,7.60
2023-05-21T02:44:55.634Z,7.50
2023-05-21T02:47:26.366Z,8.50
2023-05-21T02:49:59.666Z,8.20
2023-05-21T02:52:30.586Z,6.40
2023-05-21T02:55:01.205Z,6.10
2023-05-21T02:57:32.196Z,7.40
2023-05-21T03:00:05.936Z,8.70
2023-05-21T03:02:37.056Z,7.20
2023-05-21T03:05:09.259Z,6.70
2023-05-21T03:07:41.936Z,7.20
2023-05-21T03:10:13.389Z,8.30
2023-05-21T03:12:44.111Z,8.30
2023-05-21T03:15:15.720Z,7.50
2023-05-21T03:17:46.370Z,7.40
2023-05-21T03:20:18.926Z,7.10
2023-05-21T03:22:49.931Z,6.90
2023-05-21T03:25:21.625Z,7.80
2023-05-21T03:27:53.457Z,8.70
2023-05-21T03:30:24.021Z,7.80
2023-05-21T03:32:56.340Z,6.90
2023-05-21T03:35:27.079Z,8.60
2023-05-21T03:37:57.774Z,8.90
2023-05-21T03:40:29.363Z,8.10
2023-05-21T03:42:59.996Z,9.20
2023-05-21T03:45:30.734Z,7.40
2023-05-21T03:48:02.028Z,7.70
2023-05-21T03:50:32.703Z,7.70
2023-05-21T03:53:03.428Z,6.40
2023-05-21T03:55:34.483Z,9.00
2023-05-21T03:58:05.142Z,7.50
2023-05-21T04:00:39.016Z,9.70
2023-05-21T04:03:11.817Z,7.00
2023-05-21T04:05:42.875Z,6.90
2023-05-21T04:08:13.639Z,7.00
2023-05-21T04:10:44.187Z,6.50
2023-05-21T04:13:14.792Z,10.60
2023-05-21T04:15:46.686Z,6.80
2023-05-21T04:18:17.458Z,6.80
2023-05-21T04:20:49.935Z,6.80
2023-05-21T04:23:23.708Z,6.80
2023-05-21T04:25:54.530Z,6.00
2023-05-21T04:28:28.937Z,7.10
2023-05-21T04:31:00.137Z,7.90
2023-05-21T04:33:30.843Z,8.80
2023-05-21T04:36:01.982Z,7.80
2023-05-21T04:38:33.360Z,7.50
2023-05-21T04:41:04.855Z,8.40
2023-05-21T04:43:35.752Z,7.40
2023-05-21T04:46:06.566Z,6.90
2023-05-21T04:48:37.127Z,7.10
2023-05-21T04:51:09.132Z,9.00
2023-05-21T04:53:40.930Z,8.60
2023-05-21T04:56:11.626Z,11.70
2023-05-21T04:58:42.303Z,6.90
2023-05-21T05:01:13.642Z,6.90
2023-05-21T05:03:44.223Z,9.80
2023-05-21T05:06:15.289Z,7.80
2023-05-21T05:08:46.279Z,9.40
2023-05-21T05:11:16.873Z,6.90
2023-05-21T05:13:47.770Z,9.00
2023-05-21T05:16:24.950Z,9.50
2023-05-21T05:18:57.000Z,13.40
2023-05-21T05:21:28.013Z,8.10
2023-05-21T05:23:58.687Z,10.00
2023-05-21T05:26:29.645Z,8.50
2023-05-21T05:29:00.792Z,8.40
2023-05-21T05:31:31.703Z,8.50
2023-05-21T05:34:02.622Z,7.10
2023-05-21T05:36:33.841Z,9.30
2023-05-21T05:39:04.946Z,12.20
2023-05-21T05:41:35.734Z,11.10
2023-05-21T05:44:08.422Z,8.30
2023-05-21T05:46:41.867Z,9.80
2023-05-21T05:49:13.686Z,11.40
2023-05-21T05:51:44.982Z,9.80
2023-05-21T05:54:16.298Z,13.80
2023-05-21T05:56:47.064Z,10.40
2023-05-21T05:59:18.174Z,12.50
2023-05-21T06:01:49.099Z,16.70
2023-05-21T06:04:20.048Z,12.30
2023-05-21T06:06:52.395Z,13.30
2023-05-21T06:09:23.424Z,13.80
2023-05-21T06:11:54.197Z,13.80
2023-05-21T06:14:26.641Z,11.50
2023-05-21T06:16:57.280Z,13.30
2023-05-21T06:19:28.186Z,12.90
2023-05-21T06:21:58.765Z,11.80
2023-05-21T06:24:29.682Z,15.50
2023-05-21T06:27:00.890Z,14.10
2023-05-21T06:29:31.663Z,12.40
2023-05-21T06:32:02.791Z,12.50
2023-05-21T06:34:33.945Z,16.10
2023-05-21T06:37:04.663Z,14.30
2023-05-21T06:39:36.895Z,11.90
2023-05-21T06:42:08.202Z,15.10
2023-05-21T06:44:38.778Z,11.30
2023-05-21T06:47:09.608Z,19.40
2023-05-21T06:49:41.057Z,12.50
2023-05-21T06:52:11.622Z,13.20
2023-05-21T06:54:42.504Z,12.40
2023-05-21T06:57:15.287Z,15.10
2023-05-21T06:59:46.042Z,14.20
2023-05-21T07:02:17.402Z,13.90
2023-05-21T07:04:48.620Z,12.20
2023-05-21T07:07:19.229Z,15.20
2023-05-21T07:09:49.760Z,15.10
2023-05-21T07:12:21.095Z,16.50
2023-05-21T07:14:51.852Z,14.10
2023-05-21T07:17:22.538Z,15.50
2023-05-21T07:19:53.844Z,20.30
2023-05-21T07:22:26.631Z,14.90
2023-05-21T07:24:58.909Z,15.60
2023-05-21T07:27:29.775Z,18.60
2023-05-21T07:30:00.664Z,18.40
2023-05-21T07:32:31.269Z,22.80
2023-05-21T07:35:03.070Z,17.30
2023-05-21T07:37:33.727Z,17.60
2023-05-21T07:40:06.340Z,21.10
2023-05-21T07:42:37.317Z,17.90
2023-05-21T07:45:10.588Z,15.20
2023-05-21T07:47:41.651Z,14.90
2023-05-21T07:50:14.160Z,16.20
2023-05-21T07:52:44.794Z,19.00
2023-05-21T07:55:15.725Z,18.40
2023-05-21T07:57:47.094Z,18.60
2023-05-21T08:00:19.104Z,20.40
2023-05-21T08:02:49.817Z,20.20
2023-05-21T08:05:21.446Z,18.00
2023-05-21T08:07:52.832Z,19.20
2023-05-21T08:10:23.896Z,18.90
2023-05-21T08:12:54.505Z,17.50
2023-05-21T08:15:25.311Z,21.70
2023-05-21T08:17:56.250Z,19.30
2023-05-21T08:20:27.504Z,18.90
2023-05-21T08:22:58.476Z,17.40
2023-05-21T08:25:29.101Z,18.30
2023-05-21T08:27:59.701Z,19.70
2023-05-21T08:30:30.399Z,17.20
2023-05-21T08:33:01.211Z,17.20
2023-05-21T08:35:32.263Z,18.10
2023-05-21T08:38:03.866Z,16.00
2023-05-21T08:40:35.537Z,17.40
2023-05-21T08:43:07.173Z,20.40
2023-05-21T08:45:41.685Z,18.80
2023-05-21T08:48:13.435Z,20.50
2023-05-21T08:50:44.230Z,17.50
2023-05-21T08:53:27.326Z,18.00
2023-05-21T08:55:59.767Z,16.80
2023-05-21T08:58:33.626Z,15.90
2023-05-21T09:01:05.875Z,17.60
2023-05-21T09:03:43.251Z,16.30
2023-05-21T09:06:17.562Z,19.90
2023-05-21T09:08:54.480Z,17.10
2023-05-21T09:11:26.018Z,17.30
2023-05-21T09:13:57.625Z,18.20
2023-05-21T09:16:28.141Z,17.30
2023-05-21T09:19:02.233Z,18.60
2023-05-21T09:21:34.404Z,21.20
2023-05-21T09:24:05.289Z,17.10
2023-05-21T09:26:36.393Z,17.20
2023-05-21T09:29:07.080Z,18.30
2023-05-21T09:31:38.131Z,18.10
2023-05-21T09:34:09.095Z,17.30
2023-05-21T09:36:41.721Z,21.60
2023-05-21T09:39:17.346Z,17.70
2023-05-21T09:41:49.802Z,16.40
2023-05-21T09:44:21.452Z,24.60
2023-05-21T09:46:52.475Z,71.90
2023-05-21T09:49:28.052Z,23.90
2023-05-21T09:51:59.619Z,23.50
2023-05-21T09:54:34.178Z,16.80
2023-05-21T09:57:05.261Z,23.20
2023-05-21T09:59:42.600Z,19.00
2023-05-21T10:07:26.206Z,18.80
2023-05-21T10:09:58.828Z,18.50
2023-05-21T10:12:31.870Z,20.10
2023-05-21T10:15:04.795Z,17.10
2023-05-21T10:17:40.602Z,18.60
2023-05-21T10:20:13.708Z,17.00
2023-05-21T10:22:45.417Z,17.20
2023-05-21T10:25:16.740Z,19.70
2023-05-21T10:27:48.253Z,15.50
2023-05-21T10:30:22.852Z,16.30
2023-05-21T10:32:56.621Z,17.20
2023-05-21T10:35:28.278Z,14.90
2023-05-21T10:38:00.093Z,16.50
2023-05-21T10:40:30.927Z,16.40
2023-05-21T10:43:22.949Z,16.30
2023-05-21T10:46:10.693Z,15.50
2023-05-21T10:48:58.699Z,19.30
2023-05-21T10:51:44.367Z,16.00
2023-05-21T10:54:48.916Z,16.20
2023-05-21T10:57:35.931Z,16.30
2023-05-21T11:02:37.891Z,16.80
2023-05-21T11:05:10.348Z,13.60
2023-05-21T11:08:02.579Z,18.70
2023-05-21T11:10:40.525Z,17.40
2023-05-21T11:13:14.061Z,20.90
2023-05-21T11:16:07.997Z,17.40
2023-05-21T11:19:05.244Z,19.30
2023-05-21T11:21:37.688Z,16.00
2023-05-21T11:24:19.930Z,14.20
2023-05-21T11:27:07.087Z,14.10
2023-05-21T11:29:46.060Z,16.60
2023-05-21T11:32:20.736Z,16.50
2023-05-21T11:34:51.744Z,17.10
2023-05-21T11:37:34.681Z,20.20
2023-05-21T11:40:25.784Z,14.10
2023-05-21T11:42:57.802Z,17.00
2023-05-21T11:45:31.969Z,15.10
2023-05-21T11:48:03.619Z,13.20
2023-05-21T11:50:35.385Z,16.00
2023-05-21T11:53:07.694Z,14.80
2023-05-21T11:55:43.433Z,13.50
2023-05-21T11:58:16.722Z,15.30
2023-05-21T12:00:51.620Z,15.20
2023-05-21T12:03:27.321Z,13.60
2023-05-21T12:06:05.654Z,11.50
2023-05-21T12:08:38.444Z,13.60
2023-05-21T12:11:09.191Z,13.40
2023-05-21T12:13:40.129Z,11.90
2023-05-21T12:16:11.716Z,13.70
2023-05-21T12:18:42.420Z,13.30
2023-05-21T12:21:13.429Z,14.60
2023-05-21T12:23:44.461Z,13.50
2023-05-21T12:26:15.799Z,13.40
2023-05-21T12:28:47.001Z,10.30
2023-05-21T12:31:19.474Z,14.20
2023-05-21T12:33:52.112Z,12.30
2023-05-21T12:36:27.689Z,12.60
2023-05-21T12:38:58.886Z,13.60
2023-05-21T12:41:30.772Z,15.90
2023-05-21T12:44:01.768Z,14.20
2023-05-21T12:46:33.230Z,13.80
2023-05-21T12:49:04.392Z,14.40
2023-05-21T12:51:41.766Z,10.60
2023-05-21T12:54:16.058Z,12.20
2023-05-21T12:56:49.955Z,14.50
2023-05-21T12:59:21.012Z,11.20
2023-05-21T13:01:53.238Z,11.80
2023-05-21T13:04:25.008Z,13.70
2023-05-21T13:06:55.895Z,13.10
2023-05-21T13:09:26.942Z,12.40
2023-05-21T13:11:58.060Z,15.80
2023-05-21T13:14:28.651Z,15.70
2023-05-21T13:17:00.202Z,10.20
2023-05-21T13:19:31.415Z,13.80
2023-05-21T13:22:02.135Z,15.00
2023-05-21T13:24:32.854Z,13.50
2023-05-21T13:27:03.842Z,13.30
2023-05-21T13:29:37.138Z,12.20
2023-05-21T13:32:08.850Z,13.80
2023-05-21T13:34:39.495Z,12.30
2023-05-21T13:37:10.685Z,14.40
2023-05-21T13:39:41.723Z,11.20
2023-05-21T13:42:12.469Z,14.80
2023-05-21T13:44:43.516Z,13.20
2023-05-21T13:47:14.170Z,18.30
2023-05-21T13:49:45.731Z,11.80
2023-05-21T13:52:19.665Z,16.40
2023-05-21T13:54:51.113Z,13.10
2023-05-21T13:57:22.480Z,13.60
2023-05-21T13:59:53.952Z,12.10
2023-05-21T14:02:24.971Z,16.60
2023-05-21T14:04:56.406Z,12.60
2023-05-21T14:07:27.682Z,11.90
2023-05-21T14:09:58.293Z,11.70
2023-05-21T14:12:28.932Z,13.60
2023-05-21T14:14:59.685Z,13.70
2023-05-21T14:17:30.801Z,12.10
2023-05-21T14:20:01.669Z,11.40
2023-05-21T14:22:32.277Z,12.40
2023-05-21T14:25:03.298Z,10.90
2023-05-21T14:27:34.519Z,13.40
2023-05-21T14:30:05.348Z,13.70
2023-05-21T14:32:36.173Z,13.30
2023-05-21T14:35:08.185Z,12.30
2023-05-21T14:37:38.768Z,11.60
2023-05-21T14:40:11.725Z,12.20
2023-05-21T14:42:42.743Z,11.20
2023-05-21T14:45:19.120Z,14.80
2023-05-21T14:47:50.585Z,10.90
2023-05-21T14:50:21.752Z,11.30
2023-05-21T14:52:52.405Z,11.80
2023-05-21T14:55:24.007Z,10.40
2023-05-21T14:57:54.949Z,10.80
2023-05-21T15:00:25.787Z,10.20
2023-05-21T15:02:57.419Z,15.50
2023-05-21T15:05:29.504Z,11.10
2023-05-21T15:08:04.018Z,14.30
2023-05-21T15:10:35.072Z,10.90
2023-05-21T15:13:05.711Z,10.90
2023-05-21T15:15:37.956Z,12.20
2023-05-21T15:18:09.183Z,12.30
2023-05-21T15:20:39.831Z,13.40
2023-05-21T15:23:16.984Z,14.30
2023-05-21T15:25:48.538Z,13.90
2023-05-21T15:28:20.698Z,12.70
2023-05-21T15:30:51.352Z,12.20
2023-05-21T15:33:22.706Z,15.00
2023-05-21T15:35:53.724Z,12.30
2023-05-21T15:38:24.676Z,11.00
2023-05-21T15:40:55.388Z,14.40
2023-05-21T15:43:25.965Z,10.30
2023-05-21T15:45:56.697Z,10.70
2023-05-21T15:48:28.336Z,10.50
2023-05-21T15:50:59.336Z,11.90
2023-05-21T15:53:29.873Z,11.20
2023-05-21T15:56:02.501Z,15.80
2023-05-21T15:58:33.918Z,10.00
2023-05-21T16:01:04.682Z,13.40
2023-05-21T16:03:37.449Z,10.30
2023-05-21T16:06:08.414Z,15.60
2023-05-21T16:08:39.098Z,11.20
2023-05-21T16:11:10.126Z,12.20
2023-05-21T16:13:42.627Z,13.60
2023-05-21T16:16:13.215Z,9.80
2023-05-21T16:18:43.936Z,10.80
2023-05-21T16:21:14.708Z,11.10
2023-05-21T16:23:45.683Z,11.70
2023-05-21T16:26:16.698Z,11.50
2023-05-21T16:28:47.546Z,11.40
2023-05-21T16:31:18.424Z,14.40
2023-05-21T16:33:49.160Z,10.30
2023-05-21T16:36:21.797Z,16.20
2023-05-21T16:38:52.394Z,10.90
2023-05-21T16:41:23.007Z,10.60
2023-05-21T16:43:54.387Z,10.80
2023-05-21T16:46:25.354Z,12.80
2023-05-21T16:48:56.081Z,11.90
2023-05-21T16:51:26.560Z,11.10
2023-05-21T16:53:59.758Z,9.90
2023-05-21T16:56:30.542Z,9.40
2023-05-21T16:59:01.078Z,11.90
2023-05-21T17:01:31.760Z,9.50
2023-05-21T17:04:02.726Z,13.90
2023-05-21T17:06:34.107Z,14.60
2023-05-21T17:09:04.873Z,13.50
2023-05-21T17:11:36.027Z,13.70
2023-05-21T17:14:06.722Z,9.60
2023-05-21T17:16:37.431Z,12.60
2023-05-21T17:19:08.554Z,15.10
2023-05-21T17:21:39.145Z,10.90
2023-05-21T17:24:09.865Z,10.90
2023-05-21T17:26:40.426Z,10.60
2023-05-21T17:29:11.202Z,10.30
2023-05-21T17:31:42.222Z,14.50
2023-05-21T17:34:13.269Z,9.80
2023-05-21T17:36:43.917Z,11.40
2023-05-21T17:39:14.534Z,11.50
2023-05-21T17:41:47.471Z,11.70
2023-05-21T17:44:18.681Z,13.00
2023-05-21T17:46:49.927Z,9.30
2023-05-21T17:49:21.305Z,9.70
2023-05-21T17:51:53.337Z,15.00
2023-05-21T17:54:24.266Z,10.10
2023-05-21T17:56:55.011Z,10.80
2023-05-21T17:59:26.610Z,10.30
2023-05-21T18:01:59.946Z,12.50
2023-05-21T18:04:30.825Z,10.60
2023-05-21T18:07:01.765Z,9.10
2023-05-21T18:09:32.395Z,9.90
2023-05-21T18:12:04.279Z,9.90
2023-05-21T18:14:35.159Z,10.30
2023-05-21T18:17:06.089Z,10.80
2023-05-21T18:19:36.713Z,10.00
2023-05-21T18:22:07.786Z,11.30
2023-05-21T18:24:39.586Z,9.50
2023-05-21T18:27:10.457Z,11.10
2023-05-21T18:29:41.326Z,9.80
2023-05-21T18:32:12.621Z,11.90
2023-05-21T18:34:43.868Z,9.30
2023-05-21T18:37:14.428Z,14.00
2023-05-21T18:39:44.949Z,10.20
2023-05-21T18:42:15.545Z,11.70
2023-05-21T18:44:46.816Z,12.80
2023-05-21T18:47:17.399Z,13.60
2023-05-21T18:49:47.970Z,12.40
2023-05-21T18:52:18.908Z,9.10
2023-05-21T18:54:49.444Z,10.70
2023-05-21T18:57:21.920Z,13.30
2023-05-21T18:59:52.520Z,11.90
2023-05-21T19:02:24.226Z,15.10
2023-05-21T19:04:54.953Z,12.30
2023-05-21T19:07:25.661Z,12.50
2023-05-21T19:09:56.417Z,13.00
2023-05-21T19:12:27.401Z,12.10
2023-05-21T19:14:58.546Z,12.50
2023-05-21T19:17:29.614Z,11.50
2023-05-21T19:20:00.196Z,11.20
2023-05-21T19:22:31.638Z,11.80
2023-05-21T19:25:02.455Z,11.60
2023-05-21T19:27:33.408Z,14.80
2023-05-21T19:30:04.245Z,12.70
2023-05-21T19:32:35.140Z,10.80
2023-05-21T19:35:06.394Z,11.50
2023-05-21T19:37:37.084Z,11.30
2023-05-21T19:40:11.288Z,10.80
2023-05-21T19:42:42.232Z,12.10
2023-05-21T19:45:15.888Z,11.80
2023-05-21T19:47:46.833Z,11.60
2023-05-21T19:50:18.078Z,15.30
2023-05-21T19:52:49.150Z,11.60
2023-05-21T19:55:20.668Z,9.90
2023-05-21T19:57:51.717Z,11.20
2023-05-21T20:00:23.437Z,11.40
2023-05-21T20:02:54.436Z,10.60
2023-05-21T20:05:25.411Z,10.50
2023-05-21T20:07:58.045Z,8.70
2023-05-21T20:10:29.210Z,12.50
2023-05-21T20:13:01.408Z,13.90
2023-05-21T20:15:32.126Z,10.20
2023-05-21T20:18:03.073Z,10.40
2023-05-21T20:20:34.667Z,8.00
2023-05-21T20:23:08.350Z,9.40
2023-05-21T20:25:38.956Z,8.60
2023-05-21T20:28:09.893Z,17.80
2023-05-21T20:30:57.579Z,9.00
2023-05-21T20:33:31.390Z,10.40
2023-05-21T20:36:02.382Z,9.30
2023-05-21T20:38:33.536Z,12.80
2023-05-21T20:41:05.475Z,9.70
2023-05-21T20:43:37.327Z,11.00
2023-05-21T20:46:08.110Z,15.10
2023-05-21T20:48:39.063Z,7.00
2023-05-21T20:51:11.173Z,11.80
2023-05-21T20:53:41.854Z,8.90
2023-05-21T20:56:14.860Z,10.00
2023-05-21T20:58:45.503Z,9.00
2023-05-21T21:01:17.498Z,8.30
2023-05-21T21:03:48.431Z,11.90
2023-05-21T21:06:20.145Z,11.40
2023-05-21T21:08:50.813Z,9.30
2023-05-21T21:11:21.913Z,9.40
2023-05-21T21:13:52.554Z,9.10
2023-05-21T21:16:23.204Z,8.60
2023-05-21T21:18:53.980Z,8.50
2023-05-21T21:21:25.054Z,9.80
2023-05-21T21:23:56.363Z,11.70
2023-05-21T21:26:27.578Z,9.50
2023-05-21T21:28:59.425Z,8.50
2023-05-21T21:31:31.192Z,9.90
2023-05-21T21:34:02.204Z,8.90
2023-05-21T21:36:32.859Z,8.80
2023-05-21T21:39:04.126Z,8.60
2023-05-21T21:41:34.970Z,9.60
2023-05-21T21:44:06.183Z,9.30
2023-05-21T21:46:37.479Z,9.60
2023-05-21T21:49:08.765Z,11.10
2023-05-21T21:51:40.158Z,9.80
2023-05-21T21:54:11.047Z,9.60
2023-05-21T21:56:42.089Z,8.60
2023-05-21T21:59:12.718Z,9.60
2023-05-21T22:01:43.756Z,9.30
2023-05-21T22:04:14.654Z,8.80
2023-05-21T22:06:46.811Z,11.20
2023-05-21T22:09:18.185Z,11.60
2023-05-21T22:11:49.249Z,8.60
2023-05-21T22:14:23.220Z,8.20
2023-05-21T22:16:55.385Z,10.90
2023-05-21T22:19:26.745Z,10.30
2023-05-21T22:21:59.885Z,11.00
2023-05-21T22:24:32.444Z,9.20
2023-05-21T22:27:03.962Z,9.00
2023-05-21T22:29:34.632Z,9.10
2023-05-21T22:32:05.913Z,10.30
2023-05-21T22:34:36.862Z,10.20
2023-05-21T22:37:07.458Z,9.50
2023-05-21T22:39:38.922Z,13.10
2023-05-21T22:42:10.139Z,9.80
2023-05-21T22:44:41.002Z,11.60
2023-05-21T22:47:12.298Z,10.70
2023-05-21T22:49:43.011Z,10.80
2023-05-21T22:52:14.730Z,8.50
2023-05-21T22:54:45.329Z,12.80
2023-05-21T22:57:15.996Z,9.30
2023-05-21T22:59:47.052Z,11.60
2023-05-21T23:02:18.294Z,11.90
2023-05-21T23:04:49.399Z,10.50
2023-05-21T23:07:20.179Z,11.30
2023-05-21T23:09:51.748Z,9.40
2023-05-21T23:12:22.353Z,8.20
2023-05-21T23:14:53.460Z,10.40
2023-05-21T23:17:24.470Z,14.80
2023-05-21T23:19:56.184Z,9.80
2023-05-21T23:22:27.129Z,10.10
2023-05-21T23:24:58.248Z,9.50
2023-05-21T23:27:29.298Z,8.70
2023-05-21T23:30:00.025Z,12.50
2023-05-21T23:32:31.554Z,10.80
2023-05-21T23:35:02.244Z,9.00
2023-05-21T23:37:32.922Z,11.40
2023-05-21T23:40:03.744Z,11.80
2023-05-21T23:42:34.351Z,9.50
2023-05-21T23:45:05.224Z,9.70
2023-05-21T23:47:36.327Z,9.60
2023-05-21T23:50:08.643Z,9.70
2023-05-21T23:52:41.364Z,9.00
2023-05-21T23:55:14.782Z,9.70
2023-05-21T23:57:45.876Z,7.70
